Decoded Metar for KPOF (POPULAR BLUFF in MO, USA) (IATA:POF) | Meteo·Mobile Aviation Weather
aviador You're here:

KPOF Decoded Metar

POPULAR BLUFF in MO, USA
Report Time2018-10-22 08:53:00
UTC Time2018-10-22 09:31:11
Flight Rules vfr VFR
WindCalm
Visibility9999 m
Phenomena:N/A
Clouds:N/A
CeilingNone
Temp01°C (ISA -13)
Dew Point01°C (100% RH)
AAT-0.8°C
QNH1024 hPa
Density Alt-1,588 ft
Elevation325 ft
Report Wrong Elevation
Raw Report
KPOF 220853Z AUTO 00000KT 10SM CLR 01/01 A3024 RMK AO2 SLP244
T00060006 58002=

Extra information for KPOF:More info

Metar Taf Metar & Taf Last 4 Metars F.Rules Stats Wind Profile Meteogram Temp Stats Airport Information Weather charts Add Link Nearby VenuesMetar ALERT Operation Metar Decoded Social comments

AIRNAV info for KPOF